createdAt,value
2022-09-18T00:00:21.788Z,50.849525
2022-09-18T00:01:21.836Z,50.849537
2022-09-18T00:02:21.877Z,50.849541
2022-09-18T00:03:21.804Z,50.849506
2022-09-18T00:04:21.780Z,50.849499
2022-09-18T00:05:21.744Z,50.849518
2022-09-18T00:06:21.744Z,50.849529
2022-09-18T00:07:21.730Z,50.849525
2022-09-18T00:08:21.754Z,50.849487
2022-09-18T00:09:21.735Z,50.849472
2022-09-18T00:10:21.711Z,50.849495
2022-09-18T00:11:21.788Z,50.849503
2022-09-18T00:12:21.695Z,50.849491
2022-09-18T00:13:21.690Z,50.849514
2022-09-18T00:14:21.700Z,50.849514
2022-09-18T00:15:21.677Z,50.849468
2022-09-18T00:16:21.895Z,50.849445
2022-09-18T00:17:21.651Z,50.849453
2022-09-18T00:18:21.641Z,50.849510
2022-09-18T00:19:21.642Z,50.849510
2022-09-18T00:20:21.649Z,50.849472
2022-09-18T00:21:21.649Z,50.849472
2022-09-18T00:22:21.608Z,50.849533
2022-09-18T00:23:21.601Z,50.849491
2022-09-18T00:24:21.584Z,50.849476
2022-09-18T00:25:21.605Z,50.849434
2022-09-18T00:26:21.575Z,50.849449
2022-09-18T00:27:21.665Z,50.849438
2022-09-18T00:28:21.563Z,50.849434
2022-09-18T00:29:21.563Z,50.849449
2022-09-18T00:30:21.547Z,50.849464
2022-09-18T00:31:21.641Z,50.849468
2022-09-18T00:32:21.526Z,50.849491
2022-09-18T00:33:21.518Z,50.849468
2022-09-18T00:34:21.504Z,50.849457
2022-09-18T00:35:21.498Z,50.849464
2022-09-18T00:36:21.516Z,50.849464
2022-09-18T00:37:21.480Z,50.849480
2022-09-18T00:38:21.493Z,50.849472
2022-09-18T00:39:21.469Z,50.849464
2022-09-18T00:40:21.508Z,50.849472
2022-09-18T00:41:21.483Z,50.849449
2022-09-18T00:42:21.444Z,50.849468
2022-09-18T00:43:21.526Z,50.849472
2022-09-18T00:44:21.446Z,50.849480
2022-09-18T00:45:21.428Z,50.849472
2022-09-18T00:46:21.485Z,50.849487
2022-09-18T00:47:21.404Z,50.849499
2022-09-18T00:48:21.398Z,50.849499
2022-09-18T00:49:21.442Z,50.849495
2022-09-18T00:50:21.390Z,50.849487
2022-09-18T00:51:21.368Z,50.849487
2022-09-18T00:52:21.357Z,50.849495
2022-09-18T00:53:21.358Z,50.849503
2022-09-18T00:54:21.353Z,50.849491
2022-09-18T00:55:21.393Z,50.849503
2022-09-18T00:56:21.329Z,50.849487
2022-09-18T00:57:21.329Z,50.849491
2022-09-18T00:58:21.325Z,50.849499
2022-09-18T00:59:21.402Z,50.849491
2022-09-18T01:00:21.312Z,50.849483
2022-09-18T01:01:21.365Z,50.849499
2022-09-18T01:02:21.339Z,50.849506
2022-09-18T01:03:21.284Z,50.849487
2022-09-18T01:04:21.272Z,50.849480
2022-09-18T01:05:21.259Z,50.849487
2022-09-18T01:06:21.246Z,50.849533
2022-09-18T01:07:21.269Z,50.849533
2022-09-18T01:08:21.236Z,50.849499
2022-09-18T01:09:28.363Z,50.849503
2022-09-18T01:10:22.228Z,50.849487
2022-09-18T01:11:21.210Z,50.849476
2022-09-18T01:12:21.220Z,50.849495
2022-09-18T01:13:21.200Z,50.849491
2022-09-18T01:14:21.185Z,50.849503
2022-09-18T01:15:21.267Z,50.849499
2022-09-18T01:16:21.213Z,50.849518
2022-09-18T01:17:21.186Z,50.849483
2022-09-18T01:18:21.151Z,50.849514
2022-09-18T01:19:21.145Z,50.849514
2022-09-18T01:20:21.131Z,50.849510
2022-09-18T01:21:21.122Z,50.849503
2022-09-18T01:22:21.120Z,50.849483
2022-09-18T01:23:21.146Z,50.849503
2022-09-18T01:24:21.105Z,50.849499
2022-09-18T01:25:21.102Z,50.849491
2022-09-18T01:26:21.094Z,50.849503
2022-09-18T01:27:21.077Z,50.849499
2022-09-18T01:28:21.090Z,50.849483
2022-09-18T01:29:21.062Z,50.849483
2022-09-18T01:30:21.050Z,50.849503
2022-09-18T01:31:21.211Z,50.849503
2022-09-18T01:32:21.033Z,50.849506
2022-09-18T01:33:21.029Z,50.849506
2022-09-18T01:34:21.041Z,50.849506
2022-09-18T01:35:42.491Z,50.849480
2022-09-18T01:36:21.992Z,50.849510
2022-09-18T01:37:20.986Z,50.849510
2022-09-18T01:38:20.983Z,50.849510
2022-09-18T01:39:20.979Z,50.849510
2022-09-18T01:40:21.040Z,50.849495
2022-09-18T01:41:20.955Z,50.849510
2022-09-18T01:42:20.949Z,50.849499
2022-09-18T01:43:20.937Z,50.849541
2022-09-18T01:44:20.939Z,50.849506
2022-09-18T01:45:20.950Z,50.849499
2022-09-18T01:46:20.982Z,50.849514
2022-09-18T01:47:20.988Z,50.849514
2022-09-18T01:48:20.892Z,50.849480
2022-09-18T01:49:20.887Z,50.849499
2022-09-18T01:50:20.881Z,50.849499
2022-09-18T01:51:20.872Z,50.849510
2022-09-18T01:52:20.887Z,50.849541
2022-09-18T01:53:20.860Z,50.849529
2022-09-18T01:54:20.852Z,50.849522
2022-09-18T01:55:20.845Z,50.849522
2022-09-18T01:56:20.858Z,50.849533
2022-09-18T01:57:20.828Z,50.849525
2022-09-18T01:58:20.818Z,50.849503
2022-09-18T01:59:20.819Z,50.849522
2022-09-18T02:00:20.803Z,50.849525
2022-09-18T02:01:20.867Z,50.849518
2022-09-18T02:02:20.957Z,50.849522
2022-09-18T02:03:20.859Z,50.849525
2022-09-18T02:04:20.770Z,50.849533
2022-09-18T02:05:20.758Z,50.849522
2022-09-18T02:06:20.776Z,50.849525
2022-09-18T02:07:20.777Z,50.849545
2022-09-18T02:08:20.732Z,50.849525
2022-09-18T02:09:20.728Z,50.849518
2022-09-18T02:10:20.719Z,50.849529
2022-09-18T02:11:20.714Z,50.849510
2022-09-18T02:12:20.710Z,50.849525
2022-09-18T02:13:20.720Z,50.849518
2022-09-18T02:14:20.687Z,50.849506
2022-09-18T02:15:20.686Z,50.849537
2022-09-18T02:16:20.719Z,50.849518
2022-09-18T02:17:20.664Z,50.849533
2022-09-18T02:18:20.652Z,50.849548
2022-09-18T02:19:20.755Z,50.849545
2022-09-18T02:20:20.712Z,50.849533
2022-09-18T02:21:20.631Z,50.849533
2022-09-18T02:22:20.631Z,50.849537
2022-09-18T02:23:20.617Z,50.849537
2022-09-18T02:24:20.616Z,50.849533
2022-09-18T02:25:20.630Z,50.849518
2022-09-18T02:26:20.589Z,50.849533
2022-09-18T02:27:20.587Z,50.849545
2022-09-18T02:28:20.571Z,50.849529
2022-09-18T02:29:20.615Z,50.849545
2022-09-18T02:30:20.560Z,50.849545
2022-09-18T02:31:20.587Z,50.849545
2022-09-18T02:32:20.537Z,50.849506
2022-09-18T02:33:20.532Z,50.849503
2022-09-18T02:34:20.522Z,50.849525
2022-09-18T02:35:20.631Z,50.849529
2022-09-18T02:36:20.505Z,50.849525
2022-09-18T02:37:20.508Z,50.849529
2022-09-18T02:38:20.500Z,50.849564
2022-09-18T02:39:20.487Z,50.849567
2022-09-18T02:40:20.536Z,50.849545
2022-09-18T02:41:20.499Z,50.849552
2022-09-18T02:42:20.484Z,50.849567
2022-09-18T02:43:20.450Z,50.849560
2022-09-18T02:44:20.436Z,50.849541
2022-09-18T02:45:20.437Z,50.849522
2022-09-18T02:46:20.459Z,50.849499
2022-09-18T02:47:20.420Z,50.849514
2022-09-18T02:48:21.499Z,50.849514
2022-09-18T02:49:20.412Z,50.849541
2022-09-18T02:50:20.400Z,50.849552
2022-09-18T02:51:20.477Z,50.849529
2022-09-18T02:52:20.378Z,50.849522
2022-09-18T02:53:20.396Z,50.849522
2022-09-18T02:54:20.360Z,50.849522
2022-09-18T02:55:20.361Z,50.849522
2022-09-18T02:56:20.346Z,50.849537
2022-09-18T02:57:20.335Z,50.849499
2022-09-18T02:58:20.343Z,50.849506
2022-09-18T02:59:20.324Z,50.849533
2022-09-18T03:00:20.315Z,50.849518
2022-09-18T03:01:20.353Z,50.849499
2022-09-18T03:02:20.475Z,50.849522
2022-09-18T03:03:20.303Z,50.849522
2022-09-18T03:04:20.278Z,50.849499
2022-09-18T03:05:20.276Z,50.849545
2022-09-18T03:06:20.272Z,50.849548
2022-09-18T03:07:20.350Z,50.849506
2022-09-18T03:08:20.269Z,50.849537
2022-09-18T03:09:20.248Z,50.849533
2022-09-18T03:10:20.231Z,50.849545
2022-09-18T03:11:20.228Z,50.849548
2022-09-18T03:12:20.204Z,50.849560
2022-09-18T03:13:20.211Z,50.849533
2022-09-18T03:14:20.254Z,50.849537
2022-09-18T03:15:20.184Z,50.849518
2022-09-18T03:16:20.235Z,50.849503
2022-09-18T03:17:20.175Z,50.849533
2022-09-18T03:18:20.154Z,50.849525
2022-09-18T03:19:20.155Z,50.849537
2022-09-18T03:20:20.170Z,50.849552
2022-09-18T03:21:20.149Z,50.849541
2022-09-18T03:22:20.120Z,50.849529
2022-09-18T03:23:20.211Z,50.849522
2022-09-18T03:24:20.105Z,50.849525
2022-09-18T03:25:20.097Z,50.849518
2022-09-18T03:26:20.107Z,50.849548
2022-09-18T03:27:20.093Z,50.849525
2022-09-18T03:28:20.079Z,50.849514
2022-09-18T03:29:20.078Z,50.849522
2022-09-18T03:30:20.070Z,50.849537
2022-09-18T03:31:20.094Z,50.849545
2022-09-18T03:32:20.088Z,50.849533
2022-09-18T03:33:20.044Z,50.849548
2022-09-18T03:34:20.027Z,50.849541
2022-09-18T03:35:20.023Z,50.849529
2022-09-18T03:36:20.004Z,50.849522
2022-09-18T03:37:20.000Z,50.849510
2022-09-18T03:38:20.003Z,50.849506
2022-09-18T03:39:20.075Z,50.849499
2022-09-18T03:40:20.054Z,50.849510
2022-09-18T03:41:19.966Z,50.849518
2022-09-18T03:42:19.965Z,50.849522
2022-09-18T03:43:19.946Z,50.849548
2022-09-18T03:44:19.966Z,50.849548
2022-09-18T03:45:19.933Z,50.849545
2022-09-18T03:46:19.999Z,50.849548
2022-09-18T03:47:19.920Z,50.849545
2022-09-18T03:48:19.914Z,50.849548
2022-09-18T03:49:19.903Z,50.849548
2022-09-18T03:50:19.916Z,50.849548
2022-09-18T03:51:19.888Z,50.849533
2022-09-18T03:52:19.869Z,50.849514
2022-09-18T03:53:19.880Z,50.849525
2022-09-18T03:54:19.863Z,50.849545
2022-09-18T03:55:19.958Z,50.849525
2022-09-18T03:56:19.842Z,50.849537
2022-09-18T03:57:19.825Z,50.849499
2022-09-18T03:58:19.820Z,50.849537
2022-09-18T03:59:19.837Z,50.849522
2022-09-18T04:00:19.808Z,50.849525
2022-09-18T04:01:19.805Z,50.849514
2022-09-18T04:02:19.789Z,50.849499
2022-09-18T04:03:19.833Z,50.849514
2022-09-18T04:04:19.785Z,50.849537
2022-09-18T04:05:20.259Z,50.849503
2022-09-18T04:06:19.787Z,50.849495
2022-09-18T04:07:19.757Z,50.849487
2022-09-18T04:08:19.741Z,50.849480
2022-09-18T04:09:19.725Z,50.849510
2022-09-18T04:10:19.722Z,50.849525
2022-09-18T04:11:19.820Z,50.849545
2022-09-18T04:12:19.719Z,50.849499
2022-09-18T04:13:19.696Z,50.849487
2022-09-18T04:14:19.685Z,50.849541
2022-09-18T04:15:19.686Z,50.849514
2022-09-18T04:16:19.728Z,50.849483
2022-09-18T04:17:19.693Z,50.849487
2022-09-18T04:18:19.660Z,50.849483
2022-09-18T04:19:19.666Z,50.849495
2022-09-18T04:20:19.655Z,50.849510
2022-09-18T04:21:19.644Z,50.849533
2022-09-18T04:22:19.653Z,50.849525
2022-09-18T04:23:19.626Z,50.849529
2022-09-18T04:24:19.610Z,50.849510
2022-09-18T04:25:19.611Z,50.849514
2022-09-18T04:26:19.596Z,50.849533
2022-09-18T04:27:19.707Z,50.849529
2022-09-18T04:28:19.633Z,50.849499
2022-09-18T04:29:19.577Z,50.849503
2022-09-18T04:30:19.572Z,50.849510
2022-09-18T04:31:19.631Z,50.849506
2022-09-18T04:32:19.541Z,50.849522
2022-09-18T04:33:19.562Z,50.849510
2022-09-18T04:34:19.539Z,50.849506
2022-09-18T04:35:19.518Z,50.849514
2022-09-18T04:36:19.516Z,50.849522
2022-09-18T04:37:19.502Z,50.849506
2022-09-18T04:38:19.527Z,50.849495
2022-09-18T04:39:19.494Z,50.849514
2022-09-18T04:40:19.574Z,50.849525
2022-09-18T04:41:19.476Z,50.849525
2022-09-18T04:42:19.470Z,50.849514
2022-09-18T04:43:19.567Z,50.849510
2022-09-18T04:44:19.451Z,50.849472
2022-09-18T04:45:19.443Z,50.849480
2022-09-18T04:46:19.478Z,50.849518
2022-09-18T04:47:19.427Z,50.849499
2022-09-18T04:48:19.417Z,50.849476
2022-09-18T04:49:19.421Z,50.849491
2022-09-18T04:50:19.394Z,50.849529
2022-09-18T04:51:19.407Z,50.849545
2022-09-18T04:52:19.384Z,50.849533
2022-09-18T04:53:19.388Z,50.849510
2022-09-18T04:54:19.394Z,50.849522
2022-09-18T04:55:19.353Z,50.849510
2022-09-18T04:56:19.360Z,50.849499
2022-09-18T04:57:19.336Z,50.849506
2022-09-18T04:58:19.334Z,50.849510
2022-09-18T04:59:19.410Z,50.849506
2022-09-18T05:00:19.349Z,50.849510
2022-09-18T05:01:19.420Z,50.849518
2022-09-18T05:02:19.373Z,50.849518
2022-09-18T05:03:20.586Z,50.849529
2022-09-18T05:04:19.279Z,50.849506
2022-09-18T05:05:19.269Z,50.849514
2022-09-18T05:06:19.311Z,50.849518
2022-09-18T05:07:19.262Z,50.849533
2022-09-18T05:08:19.251Z,50.849533
2022-09-18T05:09:19.240Z,50.849541
2022-09-18T05:10:19.232Z,50.849518
2022-09-18T05:11:19.386Z,50.849556
2022-09-18T05:12:20.473Z,50.849529
2022-09-18T05:13:19.216Z,50.849525
2022-09-18T05:14:19.373Z,50.849514
2022-09-18T05:15:19.193Z,50.849499
2022-09-18T05:16:19.256Z,50.849495
2022-09-18T05:17:19.170Z,50.849506
2022-09-18T05:18:19.621Z,50.849495
2022-09-18T05:19:19.167Z,50.849514
2022-09-18T05:20:19.146Z,50.849522
2022-09-18T05:21:19.840Z,50.849476
2022-09-18T05:22:19.137Z,50.849480
2022-09-18T05:23:19.121Z,50.849503
2022-09-18T05:24:19.143Z,50.849529
2022-09-18T05:25:19.288Z,50.849487
2022-09-18T05:26:20.246Z,50.849483
2022-09-18T05:29:58.450Z,50.849442
2022-09-18T05:31:19.694Z,50.849426
2022-09-18T05:31:58.754Z,50.849506
2022-09-18T05:32:58.858Z,50.849495
2022-09-18T05:34:28.673Z,50.849499
2022-09-18T05:35:02.774Z,50.849525
2022-09-18T05:36:15.094Z,50.849510
2022-09-18T05:36:58.096Z,50.849449
2022-09-18T05:38:21.582Z,50.849445
2022-09-18T05:38:58.601Z,50.849491
2022-09-18T05:40:05.667Z,50.849468
2022-09-18T05:41:09.678Z,50.849495
2022-09-18T05:42:22.102Z,50.849510
2022-09-18T05:43:01.078Z,50.849518
2022-09-18T05:44:00.480Z,50.849476
2022-09-18T05:45:01.712Z,50.849483
2022-09-18T05:46:05.804Z,50.849491
2022-09-18T05:47:04.410Z,50.849514
2022-09-18T05:48:04.721Z,50.849514
2022-09-18T05:48:59.203Z,50.849529
2022-09-18T05:49:58.694Z,50.849461
2022-09-18T05:50:58.101Z,50.849487
2022-09-18T05:52:22.599Z,50.849407
2022-09-18T05:52:58.695Z,50.849483
2022-09-18T05:54:00.662Z,50.849529
2022-09-18T05:55:04.837Z,50.849548
2022-09-18T05:55:59.085Z,50.849499
2022-09-18T05:57:00.081Z,50.849499
2022-09-18T05:57:59.082Z,50.849480
2022-09-18T05:58:58.124Z,50.849514
2022-09-18T05:59:58.623Z,50.849491
2022-09-18T06:00:59.698Z,50.849464
2022-09-18T06:08:44.300Z,50.849468
2022-09-18T06:09:37.308Z,50.849464
2022-09-18T06:10:37.281Z,50.849506
2022-09-18T06:11:37.315Z,50.849487
2022-09-18T06:12:37.266Z,50.849491
2022-09-18T06:13:37.266Z,50.849506
2022-09-18T06:14:37.250Z,50.849529
2022-09-18T06:15:37.279Z,50.849506
2022-09-18T06:16:41.476Z,50.849529
2022-09-18T06:17:38.229Z,50.849506
2022-09-18T06:18:37.210Z,50.849529
2022-09-18T06:19:37.209Z,50.849487
2022-09-18T06:20:37.278Z,50.849480
2022-09-18T06:21:37.220Z,50.849476
2022-09-18T06:22:37.177Z,50.849468
2022-09-18T06:23:37.177Z,50.849495
2022-09-18T06:24:38.479Z,50.849506
2022-09-18T06:25:37.148Z,50.849522
2022-09-18T06:26:37.147Z,50.849552
2022-09-18T06:27:37.162Z,50.849541
2022-09-18T06:28:37.168Z,50.849518
2022-09-18T06:29:37.121Z,50.849514
2022-09-18T06:30:37.113Z,50.849510
2022-09-18T06:31:37.189Z,50.849514
2022-09-18T06:32:37.099Z,50.849487
2022-09-18T06:33:37.082Z,50.849495
2022-09-18T06:34:38.881Z,50.849514
2022-09-18T06:35:37.096Z,50.849518
2022-09-18T06:36:37.143Z,50.849537
2022-09-18T06:37:37.046Z,50.849552
2022-09-18T06:38:37.032Z,50.849506
2022-09-18T06:39:37.025Z,50.849487
2022-09-18T06:40:37.114Z,50.849495
2022-09-18T06:41:37.011Z,50.849533
2022-09-18T06:42:37.010Z,50.849537
2022-09-18T06:43:37.010Z,50.849548
2022-09-18T06:44:37.028Z,50.849548
2022-09-18T06:45:36.983Z,50.849533
2022-09-18T06:46:37.072Z,50.849529
2022-09-18T06:47:37.034Z,50.849537
2022-09-18T06:48:36.952Z,50.849545
2022-09-18T06:49:36.943Z,50.849548
2022-09-18T06:50:36.963Z,50.849556
2022-09-18T06:51:36.964Z,50.849522
2022-09-18T06:52:37.017Z,50.849522
2022-09-18T06:53:36.946Z,50.849506
2022-09-18T06:54:36.931Z,50.849529
2022-09-18T06:55:36.921Z,50.849525
2022-09-18T06:56:36.897Z,50.849533
2022-09-18T06:57:36.907Z,50.849529
2022-09-18T06:58:36.876Z,50.849533
2022-09-18T06:59:36.859Z,50.849541
2022-09-18T07:00:36.924Z,50.849533
2022-09-18T07:01:36.881Z,50.849567
2022-09-18T07:02:36.933Z,50.849537
2022-09-18T07:03:36.837Z,50.849571
2022-09-18T07:04:36.826Z,50.849545
2022-09-18T07:05:36.820Z,50.849541
2022-09-18T07:06:37.368Z,50.849541
2022-09-18T07:07:36.804Z,50.849552
2022-09-18T07:08:36.908Z,50.849552
2022-09-18T07:09:36.789Z,50.849545
2022-09-18T07:10:36.783Z,50.849541
2022-09-18T07:11:36.784Z,50.849525
2022-09-18T07:12:36.764Z,50.849541
2022-09-18T07:13:36.761Z,50.849525
2022-09-18T07:14:36.767Z,50.849548
2022-09-18T07:15:36.746Z,50.849552
2022-09-18T07:16:36.792Z,50.849545
2022-09-18T07:17:36.719Z,50.849552
2022-09-18T07:18:36.758Z,50.849541
2022-09-18T07:19:36.700Z,50.849552
2022-09-18T07:20:36.784Z,50.849552
2022-09-18T07:21:36.689Z,50.849575
2022-09-18T07:22:36.733Z,50.849586
2022-09-18T07:23:36.676Z,50.849571
2022-09-18T07:24:36.739Z,50.849564
2022-09-18T07:25:36.658Z,50.849571
2022-09-18T07:26:36.667Z,50.849560
2022-09-18T07:27:36.639Z,50.849556
2022-09-18T07:28:36.652Z,50.849533
2022-09-18T07:29:36.623Z,50.849541
2022-09-18T07:30:36.654Z,50.849548
2022-09-18T07:31:36.698Z,50.849552
2022-09-18T07:32:36.594Z,50.849552
2022-09-18T07:33:36.593Z,50.849548
2022-09-18T07:34:36.596Z,50.849548
2022-09-18T07:35:36.578Z,50.849560
2022-09-18T07:36:36.557Z,50.849545
2022-09-18T07:37:36.592Z,50.849556
2022-09-18T07:38:36.566Z,50.849525
2022-09-18T07:39:36.566Z,50.849529
2022-09-18T07:40:36.686Z,50.849525
2022-09-18T07:41:36.525Z,50.849556
2022-09-18T07:42:36.514Z,50.849514
2022-09-18T07:43:36.516Z,50.849472
2022-09-18T07:44:36.501Z,50.849548
2022-09-18T07:45:36.509Z,50.849556
2022-09-18T07:46:36.540Z,50.849560
2022-09-18T07:47:36.499Z,50.849545
2022-09-18T07:48:36.453Z,50.849579
2022-09-18T07:49:36.459Z,50.849579
2022-09-18T07:50:36.496Z,50.849575
2022-09-18T07:51:36.449Z,50.849537
2022-09-18T07:52:36.429Z,50.849545
2022-09-18T07:53:36.536Z,50.849575
2022-09-18T07:54:36.417Z,50.849548
2022-09-18T07:55:36.426Z,50.849548
2022-09-18T07:56:36.533Z,50.849522
2022-09-18T07:57:36.494Z,50.849556
2022-09-18T07:58:36.385Z,50.849564
2022-09-18T07:59:36.394Z,50.849560
2022-09-18T08:00:36.361Z,50.849522
2022-09-18T08:01:36.446Z,50.849506
2022-09-18T08:02:36.511Z,50.849541
2022-09-18T08:03:41.029Z,50.849552
2022-09-18T08:04:37.343Z,50.849510
2022-09-18T08:05:36.333Z,50.849567
2022-09-18T08:06:36.318Z,50.849533
2022-09-18T08:07:36.337Z,50.849503
2022-09-18T08:08:36.367Z,50.849514
2022-09-18T08:09:36.298Z,50.849579
2022-09-18T08:10:36.282Z,50.849525
2022-09-18T08:11:36.276Z,50.849506
2022-09-18T08:12:36.354Z,50.849499
2022-09-18T08:13:36.260Z,50.849510
2022-09-18T08:14:36.273Z,50.849525
2022-09-18T08:15:36.252Z,50.849495
2022-09-18T08:16:36.265Z,50.849483
2022-09-18T08:17:36.217Z,50.849495
2022-09-18T08:18:36.222Z,50.849529
2022-09-18T08:19:36.253Z,50.849529
2022-09-18T08:20:36.221Z,50.849529
2022-09-18T08:21:36.224Z,50.849525
2022-09-18T08:22:36.189Z,50.849529
2022-09-18T08:23:36.173Z,50.849533
2022-09-18T08:24:36.242Z,50.849533
2022-09-18T08:25:36.180Z,50.849552
2022-09-18T08:26:36.149Z,50.849541
2022-09-18T08:27:36.164Z,50.849525
2022-09-18T08:28:36.222Z,50.849545
2022-09-18T08:29:36.128Z,50.849533
2022-09-18T08:30:36.109Z,50.849533
2022-09-18T08:31:36.220Z,50.849518
2022-09-18T08:32:36.092Z,50.849529
2022-09-18T08:33:36.108Z,50.849529
2022-09-18T08:34:36.101Z,50.849522
2022-09-18T08:35:36.085Z,50.849510
2022-09-18T08:36:36.081Z,50.849510
2022-09-18T08:37:36.096Z,50.849522
2022-09-18T08:38:36.057Z,50.849552
2022-09-18T08:39:36.050Z,50.849503
2022-09-18T08:40:36.065Z,50.849525
2022-09-18T08:41:36.036Z,50.849514
2022-09-18T08:42:36.030Z,50.849541
2022-09-18T08:43:36.035Z,50.849537
2022-09-18T08:44:36.125Z,50.849541
2022-09-18T08:45:36.012Z,50.849525
2022-09-18T08:46:36.051Z,50.849510
2022-09-18T08:47:35.972Z,50.849503
2022-09-18T08:48:35.969Z,50.849510
2022-09-18T08:49:35.985Z,50.849506
2022-09-18T08:50:38.613Z,50.849560
2022-09-18T08:51:36.043Z,50.849537
2022-09-18T08:52:43.450Z,50.849545
2022-09-18T08:53:35.931Z,50.849529
2022-09-18T08:54:35.923Z,50.849621
2022-09-18T08:55:35.917Z,50.849522
2022-09-18T08:56:35.965Z,50.849495
2022-09-18T08:57:35.944Z,50.849556
2022-09-18T08:58:35.940Z,50.849529
2022-09-18T08:59:35.917Z,50.849537
2022-09-18T09:00:36.059Z,50.849506
2022-09-18T09:01:35.986Z,50.849525
2022-09-18T09:02:35.927Z,50.849499
2022-09-18T09:03:35.894Z,50.849487
2022-09-18T09:04:35.845Z,50.849522
2022-09-18T09:05:35.858Z,50.849529
2022-09-18T09:06:35.832Z,50.849552
2022-09-18T09:07:35.831Z,50.849575
2022-09-18T09:08:35.829Z,50.849529
2022-09-18T09:09:35.799Z,50.849575
2022-09-18T09:10:35.799Z,50.849506
2022-09-18T09:11:35.831Z,50.849533
2022-09-18T09:12:35.780Z,50.849518
2022-09-18T09:13:35.796Z,50.849579
2022-09-18T09:14:56.255Z,50.849617
2022-09-18T09:15:36.764Z,50.849503
2022-09-18T09:16:35.948Z,50.849499
2022-09-18T09:17:35.749Z,50.849506
2022-09-18T09:18:35.736Z,50.849548
2022-09-18T09:19:35.759Z,50.849552
2022-09-18T09:20:35.733Z,50.849537
2022-09-18T09:21:35.715Z,50.849537
2022-09-18T09:22:35.722Z,50.849545
2022-09-18T09:23:36.891Z,50.849560
2022-09-18T09:24:35.709Z,50.849575
2022-09-18T09:25:35.972Z,50.849583
2022-09-18T09:26:35.675Z,50.849575
2022-09-18T09:27:35.675Z,50.849525
2022-09-18T09:28:35.664Z,50.849541
2022-09-18T09:29:35.684Z,50.849556
2022-09-18T09:30:35.634Z,50.849556
2022-09-18T09:31:35.723Z,50.849556
2022-09-18T09:32:35.716Z,50.849525
2022-09-18T09:33:35.636Z,50.849556
2022-09-18T09:34:35.623Z,50.849529
2022-09-18T09:35:35.613Z,50.849506
2022-09-18T09:36:35.975Z,50.849514
2022-09-18T09:37:35.588Z,50.849499
2022-09-18T09:38:35.574Z,50.849552
2022-09-18T09:39:35.569Z,50.849537
2022-09-18T09:40:35.595Z,50.849548
2022-09-18T09:41:35.544Z,50.849522
2022-09-18T09:42:35.548Z,50.849518
2022-09-18T09:43:35.533Z,50.849567
2022-09-18T09:44:35.534Z,50.849533
2022-09-18T09:45:35.530Z,50.849514
2022-09-18T09:46:35.578Z,50.849537
2022-09-18T09:47:35.514Z,50.849552
2022-09-18T09:48:35.575Z,50.849533
2022-09-18T09:49:35.489Z,50.849545
2022-09-18T09:50:35.473Z,50.849560
2022-09-18T09:51:35.470Z,50.849556
2022-09-18T09:52:35.504Z,50.849560
2022-09-18T09:53:35.454Z,50.849541
2022-09-18T09:54:35.472Z,50.849545
2022-09-18T09:55:35.437Z,50.849533
2022-09-18T09:56:35.438Z,50.849545
2022-09-18T09:57:35.507Z,50.849548
2022-09-18T09:58:35.418Z,50.849545
2022-09-18T09:59:35.684Z,50.849545
2022-09-18T10:00:35.443Z,50.849552
2022-09-18T10:01:36.525Z,50.849564
2022-09-18T10:02:35.393Z,50.849541
2022-09-18T10:03:35.382Z,50.849552
2022-09-18T10:04:35.453Z,50.849567
2022-09-18T10:05:35.371Z,50.849548
2022-09-18T10:06:35.366Z,50.849552
2022-09-18T10:07:35.357Z,50.849514
2022-09-18T10:08:35.370Z,50.849518
2022-09-18T10:09:35.334Z,50.849541
2022-09-18T10:10:35.323Z,50.849560
2022-09-18T10:11:35.308Z,50.849537
2022-09-18T10:12:35.305Z,50.849571
2022-09-18T10:13:35.327Z,50.849556
2022-09-18T10:14:35.292Z,50.849545
2022-09-18T10:15:35.288Z,50.849518
2022-09-18T10:16:35.304Z,50.849537
2022-09-18T10:17:35.265Z,50.849510
2022-09-18T10:18:35.287Z,50.849552
2022-09-18T10:19:35.261Z,50.849533
2022-09-18T10:20:35.319Z,50.849506
2022-09-18T10:21:35.224Z,50.849529
2022-09-18T10:22:35.226Z,50.849545
2022-09-18T10:23:35.223Z,50.849552
2022-09-18T10:24:35.213Z,50.849541
2022-09-18T10:25:35.261Z,50.849518
2022-09-18T10:26:35.199Z,50.849529
2022-09-18T10:27:35.192Z,50.849537
2022-09-18T10:28:35.928Z,50.849537
2022-09-18T10:29:36.078Z,50.849541
2022-09-18T10:30:35.160Z,50.849518
2022-09-18T10:31:35.208Z,50.849518
2022-09-18T10:32:35.132Z,50.849529
2022-09-18T10:33:35.123Z,50.849548
2022-09-18T10:34:35.148Z,50.849567
2022-09-18T10:35:35.112Z,50.849545
2022-09-18T10:36:35.192Z,50.849545
2022-09-18T10:37:35.114Z,50.849529
2022-09-18T10:38:35.091Z,50.849537
2022-09-18T10:39:35.077Z,50.849548
2022-09-18T10:40:35.152Z,50.849564
2022-09-18T10:41:35.073Z,50.849560
2022-09-18T10:42:35.082Z,50.849533
2022-09-18T10:43:35.065Z,50.849529
2022-09-18T10:44:35.047Z,50.849518
2022-09-18T10:45:35.046Z,50.849552
2022-09-18T10:46:35.141Z,50.849537
2022-09-18T10:47:35.033Z,50.849522
2022-09-18T10:48:35.027Z,50.849522
2022-09-18T10:49:35.000Z,50.849529
2022-09-18T10:50:35.003Z,50.849491
2022-09-18T10:51:34.976Z,50.849499
2022-09-18T10:52:35.109Z,50.849518
2022-09-18T10:53:34.976Z,50.849518
2022-09-18T10:54:35.083Z,50.849525
2022-09-18T10:55:34.955Z,50.849506
2022-09-18T10:56:35.028Z,50.849510
2022-09-18T10:57:34.962Z,50.849533
2022-09-18T10:58:34.945Z,50.849529
2022-09-18T10:59:34.923Z,50.849522
2022-09-18T11:00:35.281Z,50.849514
2022-09-18T11:01:35.018Z,50.849506
2022-09-18T11:02:34.957Z,50.849514
2022-09-18T11:03:34.885Z,50.849495
2022-09-18T11:04:34.895Z,50.849510
2022-09-18T11:05:34.868Z,50.849522
2022-09-18T11:06:34.870Z,50.849503
2022-09-18T11:07:34.872Z,50.849514
2022-09-18T11:08:34.966Z,50.849522
2022-09-18T11:09:34.842Z,50.849510
2022-09-18T11:10:34.850Z,50.849529
2022-09-18T11:11:34.830Z,50.849529
2022-09-18T11:12:34.823Z,50.849522
2022-09-18T11:13:34.801Z,50.849541
2022-09-18T11:14:34.934Z,50.849529
2022-09-18T11:15:34.814Z,50.849545
2022-09-18T11:16:34.864Z,50.849548
2022-09-18T11:17:34.781Z,50.849525
2022-09-18T11:18:34.893Z,50.849506
2022-09-18T11:19:34.866Z,50.849529
2022-09-18T11:20:34.798Z,50.849529
2022-09-18T11:21:34.746Z,50.849533
2022-09-18T11:22:34.742Z,50.849541
2022-09-18T11:23:34.788Z,50.849537
2022-09-18T11:24:34.814Z,50.849545
2022-09-18T11:25:35.064Z,50.849552
2022-09-18T11:26:34.712Z,50.849537
2022-09-18T11:27:34.716Z,50.849537
2022-09-18T11:28:34.694Z,50.849548
2022-09-18T11:29:34.677Z,50.849552
2022-09-18T11:30:34.671Z,50.849552
2022-09-18T11:31:34.705Z,50.849541
2022-09-18T11:32:34.653Z,50.849548
2022-09-18T11:33:34.639Z,50.849545